aviador You're here:

KMUI Decoded Metar

MUIR in PA, USA
Report Time2017-10-23 11:04:00
UTC Time2017-10-23 11:31:43
Flight Rules ifr IFR
WindCalm
Visibility6437 m
Phenomena:Mist
Clouds:Overcast 005 Hf
Ceiling500 ft
Temp14°C (ISA -0)
Dew Point14°C (100% RH)
QNH1024 hPa
Density Alt328 ft
Elevation489 ft
Report Wrong Elevation
Raw Report
SPECI KMUI 231104Z AUTO 00000KT 4SM BR OVC005 14/14 A3025 RMK AO2 SLP246=

Extra information for KMUI:More info

Metar Taf Metar & Taf Last 4 Metars F.Rules Stats Wind Profile Meteogram Temp Stats Airport Information Weather charts Add Link Nearby VenuesMetar ALERT Operation Metar Decoded Social comments

AIRNAV info for KMUI